sensor_id;sensor_type;location;lat;lon;timestamp;temperature;humidity
18266;DHT22;9259;48.194;16.322;2024-02-15T00:01:03;10.50;99.90
18266;DHT22;9259;48.194;16.322;2024-02-15T00:03:31;10.60;99.90
18266;DHT22;9259;48.194;16.322;2024-02-15T00:06:01;10.50;99.90
18266;DHT22;9259;48.194;16.322;2024-02-15T00:08:29;10.50;99.90
18266;DHT22;9259;48.194;16.322;2024-02-15T00:10:57;10.50;99.90
18266;DHT22;9259;48.194;16.322;2024-02-15T00:13:25;10.50;99.90
18266;DHT22;9259;48.194;16.322;2024-02-15T00:15:52;10.50;99.90
18266;DHT22;9259;48.194;16.322;2024-02-15T00:18:22;10.40;99.90
18266;DHT22;9259;48.194;16.322;2024-02-15T00:20:49;10.30;99.90
18266;DHT22;9259;48.194;16.322;2024-02-15T00:23:17;10.40;99.90
18266;DHT22;9259;48.194;16.322;2024-02-15T00:25:45;10.30;99.90
18266;DHT22;9259;48.194;16.322;2024-02-15T00:28:13;10.20;99.90
18266;DHT22;9259;48.194;16.322;2024-02-15T00:30:41;10.10;99.90
18266;DHT22;9259;48.194;16.322;2024-02-15T00:33:08;10.00;99.90
18266;DHT22;9259;48.194;16.322;2024-02-15T00:35:38;10.00;99.90
18266;DHT22;9259;48.194;16.322;2024-02-15T00:38:06;9.90;99.90
18266;DHT22;9259;48.194;16.322;2024-02-15T00:40:34;9.80;99.90
18266;DHT22;9259;48.194;16.322;2024-02-15T00:43:02;9.80;99.90
18266;DHT22;9259;48.194;16.322;2024-02-15T00:45:30;9.80;99.90
18266;DHT22;9259;48.194;16.322;2024-02-15T00:47:58;9.70;99.90
18266;DHT22;9259;48.194;16.322;2024-02-15T00:50:26;9.80;99.90
18266;DHT22;9259;48.194;16.322;2024-02-15T00:52:55;9.70;99.90
18266;DHT22;9259;48.194;16.322;2024-02-15T00:55:23;9.80;99.90
18266;DHT22;9259;48.194;16.322;2024-02-15T00:57:51;9.70;99.90
18266;DHT22;9259;48.194;16.322;2024-02-15T01:00:19;9.60;99.90
18266;DHT22;9259;48.194;16.322;2024-02-15T01:02:46;9.50;99.90
18266;DHT22;9259;48.194;16.322;2024-02-15T01:05:15;9.40;99.90
18266;DHT22;9259;48.194;16.322;2024-02-15T01:07:44;9.40;99.90
18266;DHT22;9259;48.194;16.322;2024-02-15T01:10:16;9.40;99.90
18266;DHT22;9259;48.194;16.322;2024-02-15T01:12:44;9.30;99.90
18266;DHT22;9259;48.194;16.322;2024-02-15T01:15:12;9.30;99.90
18266;DHT22;9259;48.194;16.322;2024-02-15T01:17:41;9.30;99.90
18266;DHT22;9259;48.194;16.322;2024-02-15T01:20:09;9.30;99.90
18266;DHT22;9259;48.194;16.322;2024-02-15T01:22:38;9.20;99.90
18266;DHT22;9259;48.194;16.322;2024-02-15T01:25:06;9.20;99.90
18266;DHT22;9259;48.194;16.322;2024-02-15T01:27:36;9.10;99.90
18266;DHT22;9259;48.194;16.322;2024-02-15T01:30:04;9.10;99.90
18266;DHT22;9259;48.194;16.322;2024-02-15T01:32:34;9.10;99.90
18266;DHT22;9259;48.194;16.322;2024-02-15T01:35:03;9.20;99.90
18266;DHT22;9259;48.194;16.322;2024-02-15T01:37:31;9.10;99.90
18266;DHT22;9259;48.194;16.322;2024-02-15T01:39:59;9.00;99.90
18266;DHT22;9259;48.194;16.322;2024-02-15T01:42:27;9.10;99.90
18266;DHT22;9259;48.194;16.322;2024-02-15T01:44:56;9.00;99.90
18266;DHT22;9259;48.194;16.322;2024-02-15T01:47:24;9.00;99.90
18266;DHT22;9259;48.194;16.322;2024-02-15T01:49:52;9.00;99.90
18266;DHT22;9259;48.194;16.322;2024-02-15T01:52:21;9.00;99.90
18266;DHT22;9259;48.194;16.322;2024-02-15T01:54:51;9.10;99.90
18266;DHT22;9259;48.194;16.322;2024-02-15T01:57:20;9.00;99.90
18266;DHT22;9259;48.194;16.322;2024-02-15T01:59:50;9.00;99.90
18266;DHT22;9259;48.194;16.322;2024-02-15T02:02:20;9.00;99.90
18266;DHT22;9259;48.194;16.322;2024-02-15T02:04:50;9.10;99.90
18266;DHT22;9259;48.194;16.322;2024-02-15T02:07:18;9.00;99.90
18266;DHT22;9259;48.194;16.322;2024-02-15T02:09:46;9.00;99.90
18266;DHT22;9259;48.194;16.322;2024-02-15T02:12:15;9.00;99.90
18266;DHT22;9259;48.194;16.322;2024-02-15T02:14:44;9.00;99.90
18266;DHT22;9259;48.194;16.322;2024-02-15T02:17:12;8.90;99.90
18266;DHT22;9259;48.194;16.322;2024-02-15T02:19:42;8.90;99.90
18266;DHT22;9259;48.194;16.322;2024-02-15T02:22:10;8.90;99.90
18266;DHT22;9259;48.194;16.322;2024-02-15T02:24:44;8.80;99.90
18266;DHT22;9259;48.194;16.322;2024-02-15T02:27:36;8.80;99.90
18266;DHT22;9259;48.194;16.322;2024-02-15T02:30:05;8.90;99.90
18266;DHT22;9259;48.194;16.322;2024-02-15T02:32:41;8.90;99.90
18266;DHT22;9259;48.194;16.322;2024-02-15T02:35:09;8.90;99.90
18266;DHT22;9259;48.194;16.322;2024-02-15T02:37:38;9.00;99.90
18266;DHT22;9259;48.194;16.322;2024-02-15T02:40:07;8.90;99.90
18266;DHT22;9259;48.194;16.322;2024-02-15T02:42:48;9.00;99.90
18266;DHT22;9259;48.194;16.322;2024-02-15T02:45:17;9.10;99.90
18266;DHT22;9259;48.194;16.322;2024-02-15T02:47:46;9.10;99.90
18266;DHT22;9259;48.194;16.322;2024-02-15T02:50:14;9.10;99.90
18266;DHT22;9259;48.194;16.322;2024-02-15T02:52:42;9.20;99.90
18266;DHT22;9259;48.194;16.322;2024-02-15T02:55:10;9.20;99.90
18266;DHT22;9259;48.194;16.322;2024-02-15T02:57:40;9.20;99.90
18266;DHT22;9259;48.194;16.322;2024-02-15T03:00:10;9.30;99.90
18266;DHT22;9259;48.194;16.322;2024-02-15T03:02:42;9.30;99.90
18266;DHT22;9259;48.194;16.322;2024-02-15T03:05:10;9.30;99.90
18266;DHT22;9259;48.194;16.322;2024-02-15T03:07:39;9.30;99.90
18266;DHT22;9259;48.194;16.322;2024-02-15T03:10:08;9.50;99.90
18266;DHT22;9259;48.194;16.322;2024-02-15T03:12:41;9.60;99.90
18266;DHT22;9259;48.194;16.322;2024-02-15T03:15:13;9.60;99.90
18266;DHT22;9259;48.194;16.322;2024-02-15T03:17:42;9.60;99.90
18266;DHT22;9259;48.194;16.322;2024-02-15T03:20:11;9.60;99.90
18266;DHT22;9259;48.194;16.322;2024-02-15T03:22:51;9.60;99.90
18266;DHT22;9259;48.194;16.322;2024-02-15T03:25:20;9.50;99.90
18266;DHT22;9259;48.194;16.322;2024-02-15T03:27:51;9.50;99.90
18266;DHT22;9259;48.194;16.322;2024-02-15T03:30:20;9.40;99.90
18266;DHT22;9259;48.194;16.322;2024-02-15T03:32:48;9.40;99.90
18266;DHT22;9259;48.194;16.322;2024-02-15T03:35:18;9.40;99.90
18266;DHT22;9259;48.194;16.322;2024-02-15T03:37:46;9.40;99.90
18266;DHT22;9259;48.194;16.322;2024-02-15T03:40:17;9.30;99.90
18266;DHT22;9259;48.194;16.322;2024-02-15T03:42:45;9.30;99.90
18266;DHT22;9259;48.194;16.322;2024-02-15T03:45:15;9.20;99.90
18266;DHT22;9259;48.194;16.322;2024-02-15T03:47:43;9.20;99.90
18266;DHT22;9259;48.194;16.322;2024-02-15T03:50:11;9.10;99.90
18266;DHT22;9259;48.194;16.322;2024-02-15T03:52:40;9.10;99.90
18266;DHT22;9259;48.194;16.322;2024-02-15T03:55:08;9.10;99.90
18266;DHT22;9259;48.194;16.322;2024-02-15T03:57:38;9.10;99.90
18266;DHT22;9259;48.194;16.322;2024-02-15T04:00:08;9.20;99.90
18266;DHT22;9259;48.194;16.322;2024-02-15T04:02:38;9.20;99.90
18266;DHT22;9259;48.194;16.322;2024-02-15T04:05:07;9.20;99.90
18266;DHT22;9259;48.194;16.322;2024-02-15T04:07:38;9.30;99.90
18266;DHT22;9259;48.194;16.322;2024-02-15T04:10:07;9.20;99.90
18266;DHT22;9259;48.194;16.322;2024-02-15T04:12:35;9.30;99.90
18266;DHT22;9259;48.194;16.322;2024-02-15T04:15:03;9.30;99.90
18266;DHT22;9259;48.194;16.322;2024-02-15T04:17:39;9.30;99.90
18266;DHT22;9259;48.194;16.322;2024-02-15T04:20:08;9.30;99.90
18266;DHT22;9259;48.194;16.322;2024-02-15T04:22:38;9.30;99.90
18266;DHT22;9259;48.194;16.322;2024-02-15T04:25:08;9.30;99.90
18266;DHT22;9259;48.194;16.322;2024-02-15T04:27:37;9.30;99.90
18266;DHT22;9259;48.194;16.322;2024-02-15T04:30:05;9.40;99.90
18266;DHT22;9259;48.194;16.322;2024-02-15T04:32:35;9.40;99.90
18266;DHT22;9259;48.194;16.322;2024-02-15T04:35:05;9.30;99.90
18266;DHT22;9259;48.194;16.322;2024-02-15T04:37:33;9.30;99.90
18266;DHT22;9259;48.194;16.322;2024-02-15T04:40:01;9.40;99.90
18266;DHT22;9259;48.194;16.322;2024-02-15T04:42:34;9.30;99.90
18266;DHT22;9259;48.194;16.322;2024-02-15T04:45:05;9.40;99.90
18266;DHT22;9259;48.194;16.322;2024-02-15T04:47:36;9.40;99.90
18266;DHT22;9259;48.194;16.322;2024-02-15T04:50:06;9.40;99.90
18266;DHT22;9259;48.194;16.322;2024-02-15T04:52:35;9.30;99.90
18266;DHT22;9259;48.194;16.322;2024-02-15T04:55:05;9.40;99.90
18266;DHT22;9259;48.194;16.322;2024-02-15T04:57:33;9.40;99.90
18266;DHT22;9259;48.194;16.322;2024-02-15T05:00:04;9.50;99.90
18266;DHT22;9259;48.194;16.322;2024-02-15T05:02:37;9.50;99.90
18266;DHT22;9259;48.194;16.322;2024-02-15T05:05:08;9.50;99.90
18266;DHT22;9259;48.194;16.322;2024-02-15T05:07:36;9.50;99.90
18266;DHT22;9259;48.194;16.322;2024-02-15T05:10:06;9.50;99.90
18266;DHT22;9259;48.194;16.322;2024-02-15T05:12:36;9.50;99.90
18266;DHT22;9259;48.194;16.322;2024-02-15T05:15:05;9.60;99.90
18266;DHT22;9259;48.194;16.322;2024-02-15T05:17:37;9.60;99.90
18266;DHT22;9259;48.194;16.322;2024-02-15T05:20:09;9.60;99.90
18266;DHT22;9259;48.194;16.322;2024-02-15T05:22:40;9.50;99.90
18266;DHT22;9259;48.194;16.322;2024-02-15T05:25:10;9.60;99.90
18266;DHT22;9259;48.194;16.322;2024-02-15T05:27:38;9.50;99.90
18266;DHT22;9259;48.194;16.322;2024-02-15T05:30:09;9.50;99.90
18266;DHT22;9259;48.194;16.322;2024-02-15T05:32:39;9.40;99.90
18266;DHT22;9259;48.194;16.322;2024-02-15T05:35:11;9.40;99.90
18266;DHT22;9259;48.194;16.322;2024-02-15T05:37:39;9.50;99.90
18266;DHT22;9259;48.194;16.322;2024-02-15T05:40:07;9.40;99.90
18266;DHT22;9259;48.194;16.322;2024-02-15T05:42:42;9.40;99.90
18266;DHT22;9259;48.194;16.322;2024-02-15T05:45:30;9.50;99.90
18266;DHT22;9259;48.194;16.322;2024-02-15T05:48:00;9.50;99.90
18266;DHT22;9259;48.194;16.322;2024-02-15T05:50:31;9.50;99.90
18266;DHT22;9259;48.194;16.322;2024-02-15T05:52:59;9.50;99.90
18266;DHT22;9259;48.194;16.322;2024-02-15T05:55:27;9.50;99.90
18266;DHT22;9259;48.194;16.322;2024-02-15T05:57:57;9.50;99.90
18266;DHT22;9259;48.194;16.322;2024-02-15T06:00:25;9.60;99.90
18266;DHT22;9259;48.194;16.322;2024-02-15T06:02:53;9.60;99.90
18266;DHT22;9259;48.194;16.322;2024-02-15T06:05:21;9.60;99.90
18266;DHT22;9259;48.194;16.322;2024-02-15T06:07:51;9.60;99.90
18266;DHT22;9259;48.194;16.322;2024-02-15T06:10:19;9.60;99.90
18266;DHT22;9259;48.194;16.322;2024-02-15T06:12:47;9.50;99.90
18266;DHT22;9259;48.194;16.322;2024-02-15T06:15:15;9.50;99.90
18266;DHT22;9259;48.194;16.322;2024-02-15T06:17:44;9.40;99.90
18266;DHT22;9259;48.194;16.322;2024-02-15T06:20:12;9.50;99.90
18266;DHT22;9259;48.194;16.322;2024-02-15T06:22:44;9.60;99.90
18266;DHT22;9259;48.194;16.322;2024-02-15T06:25:14;9.50;99.90
18266;DHT22;9259;48.194;16.322;2024-02-15T06:27:46;9.50;99.90
18266;DHT22;9259;48.194;16.322;2024-02-15T06:30:15;9.50;99.90
18266;DHT22;9259;48.194;16.322;2024-02-15T06:33:00;9.50;99.90
18266;DHT22;9259;48.194;16.322;2024-02-15T06:35:45;9.50;99.90
18266;DHT22;9259;48.194;16.322;2024-02-15T06:38:30;9.60;99.90
18266;DHT22;9259;48.194;16.322;2024-02-15T06:41:17;9.60;99.90
18266;DHT22;9259;48.194;16.322;2024-02-15T06:43:45;9.60;99.90
18266;DHT22;9259;48.194;16.322;2024-02-15T06:46:13;9.70;99.90
18266;DHT22;9259;48.194;16.322;2024-02-15T06:48:42;9.70;99.90
18266;DHT22;9259;48.194;16.322;2024-02-15T06:51:12;9.70;99.90
18266;DHT22;9259;48.194;16.322;2024-02-15T06:53:41;9.70;99.90
18266;DHT22;9259;48.194;16.322;2024-02-15T06:56:09;9.80;99.90
18266;DHT22;9259;48.194;16.322;2024-02-15T06:58:39;9.80;99.90
18266;DHT22;9259;48.194;16.322;2024-02-15T07:01:07;9.80;99.90
18266;DHT22;9259;48.194;16.322;2024-02-15T07:03:35;9.90;99.90
18266;DHT22;9259;48.194;16.322;2024-02-15T07:06:04;9.90;99.90
18266;DHT22;9259;48.194;16.322;2024-02-15T07:08:32;9.90;99.90
18266;DHT22;9259;48.194;16.322;2024-02-15T07:11:00;9.90;99.90
18266;DHT22;9259;48.194;16.322;2024-02-15T07:13:30;10.00;99.90
18266;DHT22;9259;48.194;16.322;2024-02-15T07:15:59;10.00;99.90
18266;DHT22;9259;48.194;16.322;2024-02-15T07:18:27;10.00;99.90
18266;DHT22;9259;48.194;16.322;2024-02-15T07:20:55;9.90;99.90
18266;DHT22;9259;48.194;16.322;2024-02-15T07:23:25;9.90;99.90
18266;DHT22;9259;48.194;16.322;2024-02-15T07:25:53;9.90;99.90
18266;DHT22;9259;48.194;16.322;2024-02-15T07:28:21;9.90;99.90
18266;DHT22;9259;48.194;16.322;2024-02-15T07:30:52;9.90;99.90
18266;DHT22;9259;48.194;16.322;2024-02-15T07:33:22;10.00;99.90
18266;DHT22;9259;48.194;16.322;2024-02-15T07:35:50;9.90;99.90
18266;DHT22;9259;48.194;16.322;2024-02-15T07:38:18;10.00;99.90
18266;DHT22;9259;48.194;16.322;2024-02-15T07:40:49;10.10;99.90
18266;DHT22;9259;48.194;16.322;2024-02-15T07:43:17;10.10;99.90
18266;DHT22;9259;48.194;16.322;2024-02-15T07:45:44;10.10;99.90
18266;DHT22;9259;48.194;16.322;2024-02-15T07:48:15;10.10;99.90
18266;DHT22;9259;48.194;16.322;2024-02-15T07:50:44;10.20;99.90
18266;DHT22;9259;48.194;16.322;2024-02-15T07:53:12;10.20;99.90
18266;DHT22;9259;48.194;16.322;2024-02-15T07:55:40;10.20;99.90
18266;DHT22;9259;48.194;16.322;2024-02-15T07:58:08;10.20;99.90
18266;DHT22;9259;48.194;16.322;2024-02-15T08:00:36;10.30;99.90
18266;DHT22;9259;48.194;16.322;2024-02-15T08:03:04;10.30;99.90
18266;DHT22;9259;48.194;16.322;2024-02-15T08:05:32;10.30;99.90
18266;DHT22;9259;48.194;16.322;2024-02-15T08:08:03;10.30;99.90
18266;DHT22;9259;48.194;16.322;2024-02-15T08:10:32;10.50;99.90
18266;DHT22;9259;48.194;16.322;2024-02-15T08:13:00;10.60;99.90
18266;DHT22;9259;48.194;16.322;2024-02-15T08:15:28;10.70;99.90
18266;DHT22;9259;48.194;16.322;2024-02-15T08:17:56;10.70;99.90
18266;DHT22;9259;48.194;16.322;2024-02-15T08:20:23;10.60;99.90
18266;DHT22;9259;48.194;16.322;2024-02-15T08:22:52;10.50;99.90
18266;DHT22;9259;48.194;16.322;2024-02-15T08:25:21;10.50;99.90
18266;DHT22;9259;48.194;16.322;2024-02-15T08:27:49;10.50;99.90
18266;DHT22;9259;48.194;16.322;2024-02-15T08:30:17;10.40;99.90
18266;DHT22;9259;48.194;16.322;2024-02-15T08:32:45;10.40;99.90
18266;DHT22;9259;48.194;16.322;2024-02-15T08:35:14;10.30;99.90
18266;DHT22;9259;48.194;16.322;2024-02-15T08:37:42;10.30;99.90
18266;DHT22;9259;48.194;16.322;2024-02-15T08:40:13;10.30;99.90
18266;DHT22;9259;48.194;16.322;2024-02-15T08:42:46;10.30;99.90
18266;DHT22;9259;48.194;16.322;2024-02-15T08:45:14;10.40;99.90
18266;DHT22;9259;48.194;16.322;2024-02-15T08:47:42;10.40;99.90
18266;DHT22;9259;48.194;16.322;2024-02-15T08:50:12;10.40;99.90
18266;DHT22;9259;48.194;16.322;2024-02-15T08:52:41;10.40;99.90
18266;DHT22;9259;48.194;16.322;2024-02-15T08:55:10;10.40;99.90
18266;DHT22;9259;48.194;16.322;2024-02-15T08:57:40;10.40;99.90
18266;DHT22;9259;48.194;16.322;2024-02-15T09:00:12;10.40;99.90
18266;DHT22;9259;48.194;16.322;2024-02-15T09:02:43;10.30;99.90
18266;DHT22;9259;48.194;16.322;2024-02-15T09:05:11;10.40;99.90
18266;DHT22;9259;48.194;16.322;2024-02-15T09:07:40;10.40;99.90
18266;DHT22;9259;48.194;16.322;2024-02-15T09:10:09;10.40;99.90
18266;DHT22;9259;48.194;16.322;2024-02-15T09:12:38;10.50;99.90
18266;DHT22;9259;48.194;16.322;2024-02-15T09:15:07;10.60;99.90
18266;DHT22;9259;48.194;16.322;2024-02-15T09:17:38;10.60;99.90
18266;DHT22;9259;48.194;16.322;2024-02-15T09:20:07;10.70;99.90
18266;DHT22;9259;48.194;16.322;2024-02-15T09:22:41;10.70;99.90
18266;DHT22;9259;48.194;16.322;2024-02-15T09:25:09;10.80;99.90
18266;DHT22;9259;48.194;16.322;2024-02-15T09:27:39;10.90;99.90
18266;DHT22;9259;48.194;16.322;2024-02-15T09:30:08;11.00;99.90
18266;DHT22;9259;48.194;16.322;2024-02-15T09:32:38;11.10;99.90
18266;DHT22;9259;48.194;16.322;2024-02-15T09:35:07;11.40;99.90
18266;DHT22;9259;48.194;16.322;2024-02-15T09:37:36;11.60;99.90
18266;DHT22;9259;48.194;16.322;2024-02-15T09:40:08;11.70;99.90
18266;DHT22;9259;48.194;16.322;2024-02-15T09:42:38;11.80;99.90
18266;DHT22;9259;48.194;16.322;2024-02-15T09:45:06;12.00;99.90
18266;DHT22;9259;48.194;16.322;2024-02-15T09:47:38;12.10;99.90
18266;DHT22;9259;48.194;16.322;2024-02-15T09:50:08;12.00;99.90
18266;DHT22;9259;48.194;16.322;2024-02-15T09:52:38;11.90;99.90
18266;DHT22;9259;48.194;16.322;2024-02-15T09:55:08;11.90;99.90
18266;DHT22;9259;48.194;16.322;2024-02-15T09:57:39;12.00;99.90
18266;DHT22;9259;48.194;16.322;2024-02-15T10:00:08;12.20;99.90
18266;DHT22;9259;48.194;16.322;2024-02-15T10:02:42;12.40;99.90
18266;DHT22;9259;48.194;16.322;2024-02-15T10:05:11;12.80;99.90
18266;DHT22;9259;48.194;16.322;2024-02-15T10:07:39;13.30;99.90
18266;DHT22;9259;48.194;16.322;2024-02-15T10:10:17;13.50;99.90
18266;DHT22;9259;48.194;16.322;2024-02-15T10:12:47;13.40;99.90
18266;DHT22;9259;48.194;16.322;2024-02-15T10:15:28;13.40;99.90
18266;DHT22;9259;48.194;16.322;2024-02-15T10:18:02;13.50;99.90
18266;DHT22;9259;48.194;16.322;2024-02-15T10:20:31;13.60;99.90
18266;DHT22;9259;48.194;16.322;2024-02-15T10:23:10;13.90;99.90
18266;DHT22;9259;48.194;16.322;2024-02-15T10:25:39;13.80;99.90
18266;DHT22;9259;48.194;16.322;2024-02-15T10:28:08;14.00;99.90
18266;DHT22;9259;48.194;16.322;2024-02-15T10:30:39;14.40;99.90
18266;DHT22;9259;48.194;16.322;2024-02-15T10:33:18;14.90;99.90
18266;DHT22;9259;48.194;16.322;2024-02-15T10:35:47;15.70;99.90
18266;DHT22;9259;48.194;16.322;2024-02-15T10:38:15;16.40;99.90
18266;DHT22;9259;48.194;16.322;2024-02-15T10:40:43;17.00;99.90
18266;DHT22;9259;48.194;16.322;2024-02-15T10:43:13;17.50;99.90
18266;DHT22;9259;48.194;16.322;2024-02-15T10:45:43;18.70;99.90
18266;DHT22;9259;48.194;16.322;2024-02-15T10:48:13;18.70;99.90
18266;DHT22;9259;48.194;16.322;2024-02-15T10:50:41;18.50;99.90
18266;DHT22;9259;48.194;16.322;2024-02-15T10:53:20;18.10;99.90
18266;DHT22;9259;48.194;16.322;2024-02-15T10:55:57;17.50;99.90
18266;DHT22;9259;48.194;16.322;2024-02-15T10:58:32;16.60;99.90
18266;DHT22;9259;48.194;16.322;2024-02-15T11:01:02;17.00;99.90
18266;DHT22;9259;48.194;16.322;2024-02-15T11:03:37;17.50;99.90
18266;DHT22;9259;48.194;16.322;2024-02-15T11:06:09;17.50;99.90
18266;DHT22;9259;48.194;16.322;2024-02-15T11:08:37;17.20;99.90
18266;DHT22;9259;48.194;16.322;2024-02-15T11:11:06;18.20;99.90
18266;DHT22;9259;48.194;16.322;2024-02-15T11:13:35;19.40;99.90
18266;DHT22;9259;48.194;16.322;2024-02-15T11:16:03;19.80;99.90
18266;DHT22;9259;48.194;16.322;2024-02-15T11:18:46;20.30;99.90
18266;DHT22;9259;48.194;16.322;2024-02-15T11:21:17;20.40;99.90
18266;DHT22;9259;48.194;16.322;2024-02-15T11:23:45;20.40;99.90
18266;DHT22;9259;48.194;16.322;2024-02-15T11:26:43;20.10;99.90
18266;DHT22;9259;48.194;16.322;2024-02-15T11:35:20;17.90;99.90
18266;DHT22;9259;48.194;16.322;2024-02-15T11:37:50;18.00;99.90
18266;DHT22;9259;48.194;16.322;2024-02-15T11:40:22;18.30;99.90
18266;DHT22;9259;48.194;16.322;2024-02-15T11:42:52;18.20;99.90
18266;DHT22;9259;48.194;16.322;2024-02-15T11:45:21;17.90;99.90
18266;DHT22;9259;48.194;16.322;2024-02-15T11:47:49;17.70;99.90
18266;DHT22;9259;48.194;16.322;2024-02-15T11:50:20;17.80;99.90
18266;DHT22;9259;48.194;16.322;2024-02-15T11:52:49;17.80;99.90
18266;DHT22;9259;48.194;16.322;2024-02-15T11:55:20;18.30;99.90
18266;DHT22;9259;48.194;16.322;2024-02-15T11:57:55;19.40;99.90
18266;DHT22;9259;48.194;16.322;2024-02-15T12:00:29;18.10;99.90
18266;DHT22;9259;48.194;16.322;2024-02-15T12:03:15;17.30;99.90
18266;DHT22;9259;48.194;16.322;2024-02-15T12:06:02;17.00;99.90
18266;DHT22;9259;48.194;16.322;2024-02-15T12:08:50;17.10;99.90
18266;DHT22;9259;48.194;16.322;2024-02-15T12:11:36;17.40;99.90
18266;DHT22;9259;48.194;16.322;2024-02-15T12:14:22;17.50;99.90
18266;DHT22;9259;48.194;16.322;2024-02-15T12:17:08;17.50;99.90
18266;DHT22;9259;48.194;16.322;2024-02-15T12:19:57;17.40;99.90
18266;DHT22;9259;48.194;16.322;2024-02-15T12:22:32;16.80;99.90
18266;DHT22;9259;48.194;16.322;2024-02-15T12:25:01;16.70;99.90
18266;DHT22;9259;48.194;16.322;2024-02-15T12:27:32;16.80;99.90
18266;DHT22;9259;48.194;16.322;2024-02-15T12:30:00;17.50;99.90
18266;DHT22;9259;48.194;16.322;2024-02-15T12:32:32;19.40;99.90
18266;DHT22;9259;48.194;16.322;2024-02-15T12:35:11;20.40;99.90
18266;DHT22;9259;48.194;16.322;2024-02-15T12:37:44;21.00;99.90
18266;DHT22;9259;48.194;16.322;2024-02-15T12:40:13;20.80;99.90
